createdAt,value
2023-05-09T00:00:58.047Z,13.48
2023-05-09T00:03:06.192Z,13.65
2023-05-09T00:05:12.367Z,12.73
2023-05-09T00:07:20.256Z,13.98
2023-05-09T00:09:25.326Z,14.98
2023-05-09T00:11:30.807Z,14.73
2023-05-09T00:13:37.590Z,15.20
2023-05-09T00:15:44.831Z,16.40
2023-05-09T00:17:50.703Z,15.27
2023-05-09T00:19:56.035Z,15.38
2023-05-09T00:22:01.097Z,14.63
2023-05-09T00:24:09.863Z,13.98
2023-05-09T00:26:14.947Z,14.35
2023-05-09T00:28:21.613Z,13.27
2023-05-09T00:30:26.742Z,13.30
2023-05-09T00:32:32.286Z,13.88
2023-05-09T00:34:37.482Z,14.02
2023-05-09T00:36:42.688Z,14.40
2023-05-09T00:38:47.962Z,14.55
2023-05-09T00:40:55.618Z,14.50
2023-05-09T00:43:02.499Z,14.25
2023-05-09T00:45:09.276Z,14.40
2023-05-09T00:47:14.638Z,13.90
2023-05-09T00:49:19.775Z,13.93
2023-05-09T00:51:26.280Z,13.98
2023-05-09T00:53:31.453Z,13.23
2023-05-09T00:55:36.872Z,12.82
2023-05-09T00:57:45.155Z,14.93
2023-05-09T00:59:50.394Z,14.73
2023-05-09T01:01:56.293Z,14.27
2023-05-09T01:04:02.242Z,13.98
2023-05-09T01:06:15.745Z,13.45
2023-05-09T01:08:32.657Z,13.98
2023-05-09T01:10:46.429Z,14.07
2023-05-09T01:13:06.459Z,14.32
2023-05-09T01:15:18.565Z,14.55
2023-05-09T01:17:32.850Z,15.23
2023-05-09T01:20:02.042Z,15.15
2023-05-09T01:22:14.900Z,13.57
2023-05-09T01:24:56.216Z,13.02
2023-05-09T01:27:44.684Z,13.63
2023-05-09T01:29:59.667Z,13.30
2023-05-09T01:32:10.232Z,14.63
2023-05-09T01:34:20.549Z,15.13
2023-05-09T01:36:31.116Z,14.70
2023-05-09T01:38:37.384Z,13.57
2023-05-09T01:40:45.273Z,13.43
2023-05-09T01:43:10.009Z,14.35
2023-05-09T01:45:19.137Z,14.93
2023-05-09T01:47:26.213Z,14.50
2023-05-09T01:49:35.088Z,13.65
2023-05-09T01:51:43.871Z,13.93
2023-05-09T01:53:52.735Z,13.70
2023-05-09T01:55:59.624Z,14.85
2023-05-09T01:58:06.378Z,15.13
2023-05-09T02:00:15.484Z,13.80
2023-05-09T02:02:26.232Z,15.77
2023-05-09T02:04:33.364Z,14.25
2023-05-09T02:06:39.201Z,12.80
2023-05-09T02:08:45.066Z,14.23
2023-05-09T02:10:51.776Z,13.50
2023-05-09T02:12:57.981Z,15.07
2023-05-09T02:15:03.193Z,14.07
2023-05-09T02:17:09.763Z,14.95
2023-05-09T02:19:17.645Z,15.32
2023-05-09T02:21:22.807Z,15.80
2023-05-09T02:23:28.417Z,13.93
2023-05-09T02:25:34.476Z,14.55
2023-05-09T02:27:42.280Z,14.65
2023-05-09T02:29:52.016Z,14.57
2023-05-09T02:31:57.792Z,15.73
2023-05-09T02:34:06.816Z,15.30
2023-05-09T02:36:17.084Z,15.85
2023-05-09T02:38:22.437Z,14.20
2023-05-09T02:40:29.217Z,14.55
2023-05-09T02:42:34.294Z,15.60
2023-05-09T02:44:39.444Z,13.32
2023-05-09T02:46:44.551Z,15.07
2023-05-09T02:48:49.608Z,14.93
2023-05-09T02:50:54.927Z,16.02
2023-05-09T02:53:02.613Z,14.15
2023-05-09T02:55:10.127Z,14.18
2023-05-09T02:57:17.922Z,14.77
2023-05-09T02:59:23.434Z,15.50
2023-05-09T03:01:28.843Z,14.38
2023-05-09T03:03:38.164Z,14.23
2023-05-09T03:05:43.502Z,14.48
2023-05-09T03:07:49.888Z,14.07
2023-05-09T03:09:57.574Z,12.88
2023-05-09T03:12:04.197Z,14.07
2023-05-09T03:14:10.888Z,12.90
2023-05-09T03:16:21.491Z,13.23
2023-05-09T03:18:28.529Z,14.13
2023-05-09T03:20:33.809Z,14.40
2023-05-09T03:22:39.886Z,14.15
2023-05-09T03:24:47.347Z,13.02
2023-05-09T03:26:56.036Z,13.45
2023-05-09T03:29:01.624Z,14.93
2023-05-09T03:31:07.331Z,14.77
2023-05-09T03:33:13.134Z,14.10
2023-05-09T03:35:18.298Z,14.82
2023-05-09T03:37:26.187Z,15.63
2023-05-09T03:39:32.083Z,15.00
2023-05-09T03:41:37.927Z,14.82
2023-05-09T03:43:48.659Z,14.10
2023-05-09T03:45:53.728Z,14.75
2023-05-09T03:47:59.250Z,15.60
2023-05-09T03:50:04.304Z,15.07
2023-05-09T03:52:10.560Z,15.63
2023-05-09T03:54:16.267Z,14.43
2023-05-09T03:56:21.331Z,14.20
2023-05-09T03:58:30.062Z,13.80
2023-05-09T04:00:38.080Z,13.93
2023-05-09T04:02:49.058Z,13.73
2023-05-09T04:05:03.027Z,14.73
2023-05-09T04:07:08.149Z,14.18
2023-05-09T04:09:14.739Z,14.10
2023-05-09T04:11:21.769Z,13.82
2023-05-09T04:13:28.602Z,14.55
2023-05-09T04:15:33.831Z,14.00
2023-05-09T04:17:41.576Z,13.90
2023-05-09T04:19:47.353Z,15.27
2023-05-09T04:21:52.818Z,13.63
2023-05-09T04:23:58.815Z,14.65
2023-05-09T04:26:12.411Z,14.13
2023-05-09T04:28:17.900Z,15.45
2023-05-09T04:30:23.644Z,13.45
2023-05-09T04:32:29.103Z,14.82
2023-05-09T04:34:38.029Z,15.40
2023-05-09T04:36:52.212Z,15.48
2023-05-09T04:38:58.346Z,12.93
2023-05-09T04:41:04.963Z,13.32
2023-05-09T04:43:10.048Z,13.20
2023-05-09T04:45:16.188Z,12.95
2023-05-09T04:47:21.560Z,13.95
2023-05-09T04:49:26.842Z,14.05
2023-05-09T04:51:34.688Z,13.60
2023-05-09T04:53:40.042Z,13.32
2023-05-09T04:55:46.601Z,13.50
2023-05-09T04:57:52.331Z,14.45
2023-05-09T04:59:58.414Z,12.45
2023-05-09T05:02:03.640Z,12.70
2023-05-09T05:04:10.285Z,12.60
2023-05-09T05:06:15.482Z,14.13
2023-05-09T05:08:23.783Z,14.27
2023-05-09T05:10:30.626Z,14.20
2023-05-09T05:12:44.212Z,12.73
2023-05-09T05:14:51.799Z,13.02
2023-05-09T05:16:59.681Z,13.20
2023-05-09T05:19:04.764Z,13.18
2023-05-09T05:21:16.641Z,13.70
2023-05-09T05:23:25.317Z,12.50
2023-05-09T05:25:32.761Z,12.60
2023-05-09T05:27:39.198Z,12.13
2023-05-09T05:29:45.376Z,12.40
2023-05-09T05:31:50.543Z,11.57
2023-05-09T05:33:55.688Z,12.32
2023-05-09T05:36:01.600Z,12.23
2023-05-09T05:38:06.798Z,11.45
2023-05-09T05:40:15.165Z,11.02
2023-05-09T05:42:23.209Z,10.82
2023-05-09T05:44:29.072Z,10.73
2023-05-09T05:46:35.074Z,10.68
2023-05-09T05:48:40.647Z,10.23
2023-05-09T05:50:46.458Z,11.45
2023-05-09T05:52:53.997Z,10.70
2023-05-09T05:54:59.593Z,11.07
2023-05-09T05:57:08.390Z,11.25
2023-05-09T05:59:14.192Z,10.82
2023-05-09T06:01:19.719Z,10.50
2023-05-09T06:03:25.366Z,10.13
2023-05-09T06:05:40.311Z,10.90
2023-05-09T06:07:45.753Z,10.95
2023-05-09T06:09:50.828Z,11.13
2023-05-09T06:11:56.895Z,11.07
2023-05-09T06:14:04.591Z,10.32
2023-05-09T06:16:19.349Z,9.60
2023-05-09T06:18:28.081Z,9.85
2023-05-09T06:20:33.137Z,9.85
2023-05-09T06:22:38.285Z,10.32
2023-05-09T06:24:43.379Z,9.20
2023-05-09T06:26:48.463Z,8.88
2023-05-09T06:28:53.549Z,10.15
2023-05-09T06:31:01.815Z,10.05
2023-05-09T06:33:07.157Z,9.25
2023-05-09T06:35:12.925Z,9.35
2023-05-09T06:37:18.142Z,9.82
2023-05-09T06:39:23.209Z,9.10
2023-05-09T06:41:28.464Z,9.40
2023-05-09T06:43:33.628Z,9.00
2023-05-09T06:45:38.759Z,9.63
2023-05-09T06:47:46.462Z,9.10
2023-05-09T06:49:51.648Z,10.68
2023-05-09T06:51:56.746Z,10.73
2023-05-09T06:54:01.809Z,11.43
2023-05-09T06:56:07.811Z,11.20
2023-05-09T06:58:13.159Z,11.93
2023-05-09T07:00:19.918Z,12.02
2023-05-09T07:02:25.024Z,11.77
2023-05-09T07:04:32.805Z,11.35
2023-05-09T07:06:38.185Z,11.57
2023-05-09T07:08:43.346Z,12.25
2023-05-09T07:10:48.431Z,10.85
2023-05-09T07:12:53.601Z,11.82
2023-05-09T07:14:59.196Z,11.75
2023-05-09T07:17:21.281Z,11.63
2023-05-09T07:19:28.500Z,12.88
2023-05-09T07:21:36.513Z,13.00
2023-05-09T07:23:41.588Z,13.57
2023-05-09T07:25:46.933Z,12.73
2023-05-09T07:27:52.050Z,12.80
2023-05-09T07:29:57.481Z,14.88
2023-05-09T07:32:02.666Z,13.00
2023-05-09T07:34:07.755Z,13.18
2023-05-09T07:36:14.130Z,12.20
2023-05-09T07:38:21.827Z,12.15
2023-05-09T07:40:27.136Z,12.63
2023-05-09T07:42:33.299Z,10.77
2023-05-09T07:44:38.552Z,11.07
2023-05-09T07:46:43.673Z,11.20
2023-05-09T07:48:48.774Z,10.43
2023-05-09T07:50:53.859Z,10.55
2023-05-09T07:53:00.155Z,9.70
2023-05-09T07:55:09.138Z,9.23
2023-05-09T07:57:14.256Z,9.88
2023-05-09T07:59:19.938Z,8.70
2023-05-09T08:01:25.039Z,8.60
2023-05-09T08:03:30.227Z,7.43
2023-05-09T08:05:35.707Z,8.43
2023-05-09T08:07:40.794Z,7.65
2023-05-09T08:09:45.854Z,8.82
2023-05-09T08:11:53.575Z,7.20
2023-05-09T08:13:58.631Z,7.55
2023-05-09T08:16:04.873Z,7.30
2023-05-09T08:18:10.260Z,7.90
2023-05-09T08:20:16.312Z,7.38
2023-05-09T08:22:22.170Z,7.85
2023-05-09T08:24:27.216Z,7.93
2023-05-09T08:26:32.381Z,7.10
2023-05-09T08:28:40.011Z,7.72
2023-05-09T08:30:45.226Z,7.10
2023-05-09T08:32:50.300Z,7.70
2023-05-09T08:34:55.806Z,7.97
2023-05-09T08:37:00.883Z,7.90
2023-05-09T08:39:06.036Z,7.22
2023-05-09T08:41:11.202Z,8.02
2023-05-09T08:43:19.383Z,7.13
2023-05-09T08:45:32.646Z,7.00
2023-05-09T08:47:40.242Z,7.60
2023-05-09T08:49:45.762Z,6.78
2023-05-09T08:51:51.749Z,7.07
2023-05-09T08:53:56.993Z,6.68
2023-05-09T08:56:03.069Z,6.68
2023-05-09T08:58:08.706Z,6.70
2023-05-09T09:00:20.241Z,6.93
2023-05-09T09:02:28.483Z,7.03
2023-05-09T09:04:33.780Z,7.65
2023-05-09T09:06:40.382Z,8.20
2023-05-09T09:08:46.763Z,8.07
2023-05-09T09:10:52.204Z,8.02
2023-05-09T09:13:00.296Z,8.15
2023-05-09T09:15:09.609Z,8.27
2023-05-09T09:17:18.296Z,8.65
2023-05-09T09:19:30.833Z,7.90
2023-05-09T09:21:36.993Z,7.47
2023-05-09T09:23:44.603Z,7.60
2023-05-09T09:25:50.710Z,6.43
2023-05-09T09:27:56.277Z,7.65
2023-05-09T09:30:10.603Z,7.68
2023-05-09T09:32:15.830Z,7.78
2023-05-09T09:34:26.955Z,8.45
2023-05-09T09:36:34.809Z,9.07
2023-05-09T09:38:45.075Z,7.85
2023-05-09T09:40:56.739Z,8.35
2023-05-09T09:43:02.008Z,7.78
2023-05-09T09:45:11.917Z,7.18
2023-05-09T09:47:17.237Z,7.68
2023-05-09T09:49:26.939Z,7.45
2023-05-09T09:51:32.598Z,7.70
2023-05-09T09:53:42.778Z,7.22
2023-05-09T09:55:54.028Z,7.65
2023-05-09T09:57:59.088Z,7.25
2023-05-09T10:00:04.294Z,6.95
2023-05-09T10:02:12.471Z,7.43
2023-05-09T10:04:19.414Z,6.97
2023-05-09T10:06:27.066Z,7.32
2023-05-09T10:08:32.406Z,6.80
2023-05-09T10:10:40.086Z,6.85
2023-05-09T10:12:47.047Z,5.70
2023-05-09T10:14:52.454Z,5.40
2023-05-09T10:17:00.287Z,5.75
2023-05-09T10:19:06.268Z,6.75
2023-05-09T10:21:14.715Z,5.50
2023-05-09T10:23:23.672Z,5.05
2023-05-09T10:25:42.234Z,4.90
2023-05-09T10:27:50.166Z,4.45
2023-05-09T10:30:04.888Z,4.13
2023-05-09T10:32:20.626Z,4.47
2023-05-09T10:34:28.113Z,4.63
2023-05-09T10:36:33.212Z,4.75
2023-05-09T10:38:41.787Z,4.45
2023-05-09T10:40:50.168Z,4.57
2023-05-09T10:42:55.558Z,4.15
2023-05-09T10:45:01.080Z,4.00
2023-05-09T10:47:06.784Z,3.88
2023-05-09T10:49:13.034Z,3.78
2023-05-09T10:51:18.568Z,3.95
2023-05-09T10:53:24.538Z,3.53
2023-05-09T10:55:39.641Z,4.13
2023-05-09T10:57:56.646Z,4.15
2023-05-09T11:00:03.020Z,3.92
2023-05-09T11:02:14.222Z,3.67
2023-05-09T11:04:21.155Z,3.50
2023-05-09T11:06:52.280Z,3.85
2023-05-09T11:08:57.787Z,3.70
2023-05-09T11:11:10.401Z,3.70
2023-05-09T11:13:15.597Z,3.35
2023-05-09T11:15:22.796Z,3.05
2023-05-09T11:17:34.433Z,3.00
2023-05-09T11:19:57.159Z,3.85
2023-05-09T11:22:13.915Z,3.60
2023-05-09T11:24:21.585Z,3.60
2023-05-09T11:26:34.281Z,3.38
2023-05-09T11:28:41.584Z,3.30
2023-05-09T11:30:46.885Z,3.03
2023-05-09T11:32:59.017Z,3.45
2023-05-09T11:35:10.487Z,3.35
2023-05-09T11:37:17.319Z,2.88
2023-05-09T11:39:28.230Z,2.92
2023-05-09T11:41:42.888Z,2.97
2023-05-09T11:43:48.281Z,3.13
2023-05-09T11:45:53.930Z,3.30
2023-05-09T11:48:00.731Z,2.83
2023-05-09T11:50:10.253Z,2.80
2023-05-09T11:52:15.246Z,3.08
2023-05-09T11:54:20.319Z,2.85
2023-05-09T11:56:25.866Z,2.88
2023-05-09T11:58:33.798Z,3.00
2023-05-09T12:00:39.580Z,2.80
2023-05-09T12:02:49.300Z,2.67
2023-05-09T12:04:55.176Z,2.72
2023-05-09T12:07:02.017Z,3.50
2023-05-09T12:09:08.355Z,2.55
2023-05-09T12:11:15.230Z,3.00
2023-05-09T12:13:20.886Z,2.80
2023-05-09T12:15:28.521Z,2.70
2023-05-09T12:17:33.652Z,2.60
2023-05-09T12:19:39.566Z,2.67
2023-05-09T12:21:44.577Z,2.50
2023-05-09T12:23:53.513Z,3.10
2023-05-09T12:26:00.196Z,2.80
2023-05-09T12:28:05.604Z,2.53
2023-05-09T12:30:14.389Z,2.70
2023-05-09T12:32:22.444Z,2.85
2023-05-09T12:34:28.251Z,3.10
2023-05-09T12:36:38.512Z,2.72
2023-05-09T12:38:43.595Z,2.78
2023-05-09T12:40:51.771Z,2.53
2023-05-09T12:43:00.123Z,3.00
2023-05-09T12:45:06.423Z,2.97
2023-05-09T12:47:15.172Z,2.47
2023-05-09T12:49:27.010Z,2.83
2023-05-09T12:51:32.291Z,2.70
2023-05-09T12:53:42.371Z,2.17
2023-05-09T12:55:47.516Z,2.58
2023-05-09T12:58:03.820Z,2.53
2023-05-09T13:00:12.543Z,2.60
2023-05-09T13:02:17.905Z,2.95
2023-05-09T13:04:26.823Z,2.55
2023-05-09T13:06:32.141Z,2.63
2023-05-09T13:08:37.643Z,2.03
2023-05-09T13:10:42.902Z,2.20
2023-05-09T13:12:48.574Z,2.15
2023-05-09T13:14:54.202Z,2.17
2023-05-09T13:16:59.703Z,2.08
2023-05-09T13:19:05.510Z,2.17
2023-05-09T13:21:13.078Z,2.10
2023-05-09T13:23:18.080Z,2.03
2023-05-09T13:25:23.941Z,2.10
2023-05-09T13:27:29.103Z,2.30
2023-05-09T13:29:34.135Z,2.10
2023-05-09T13:31:39.233Z,2.10
2023-05-09T13:33:44.316Z,2.00
2023-05-09T13:35:49.627Z,1.88
2023-05-09T13:37:58.889Z,2.08
2023-05-09T13:40:04.417Z,2.10
2023-05-09T13:42:11.121Z,1.73
2023-05-09T13:44:16.245Z,2.17
2023-05-09T13:46:21.328Z,2.00
2023-05-09T13:48:26.433Z,1.95
2023-05-09T13:50:31.539Z,1.80
2023-05-09T13:52:36.620Z,1.75
2023-05-09T13:54:44.246Z,2.00
2023-05-09T13:56:49.373Z,1.65
2023-05-09T13:58:54.441Z,2.05
2023-05-09T14:00:59.553Z,1.90
2023-05-09T14:03:05.599Z,2.15
2023-05-09T14:05:12.024Z,1.98
2023-05-09T14:07:17.942Z,1.40
2023-05-09T14:09:23.047Z,1.92
2023-05-09T14:11:30.651Z,1.95
2023-05-09T14:13:35.780Z,2.47
2023-05-09T14:15:41.633Z,1.75
2023-05-09T14:17:46.702Z,1.83
2023-05-09T14:19:52.518Z,1.67
2023-05-09T14:21:57.556Z,1.50
2023-05-09T14:24:02.961Z,1.50
2023-05-09T14:26:08.397Z,1.75
2023-05-09T14:28:16.140Z,1.80
2023-05-09T14:30:22.060Z,2.00
2023-05-09T14:32:27.366Z,1.60
2023-05-09T14:34:32.779Z,1.90
2023-05-09T14:36:37.868Z,1.50
2023-05-09T14:38:45.743Z,1.90
2023-05-09T14:40:50.782Z,1.63
2023-05-09T14:42:56.123Z,1.70
2023-05-09T14:45:04.117Z,1.85
2023-05-09T14:47:10.626Z,2.00
2023-05-09T14:49:16.168Z,2.58
2023-05-09T14:51:21.956Z,1.90
2023-05-09T14:53:28.788Z,1.60
2023-05-09T14:55:33.952Z,1.70
2023-05-09T14:57:39.122Z,1.83
2023-05-09T14:59:44.456Z,2.08
2023-05-09T15:01:52.836Z,1.90
2023-05-09T15:03:58.182Z,2.40
2023-05-09T15:06:03.219Z,1.85
2023-05-09T15:08:08.629Z,1.80
2023-05-09T15:10:14.389Z,1.92
2023-05-09T15:12:19.563Z,1.60
2023-05-09T15:14:24.892Z,2.03
2023-05-09T15:16:30.035Z,1.77
2023-05-09T15:18:37.734Z,1.35
2023-05-09T15:20:43.067Z,1.50
2023-05-09T15:22:50.028Z,1.60
2023-05-09T15:24:55.125Z,1.50
2023-05-09T15:27:00.150Z,1.88
2023-05-09T15:29:05.210Z,2.22
2023-05-09T15:31:10.975Z,1.75
2023-05-09T15:33:16.304Z,1.85
2023-05-09T15:35:24.216Z,1.75
2023-05-09T15:37:29.267Z,1.90
2023-05-09T15:39:42.393Z,1.60
2023-05-09T15:41:47.420Z,1.65
2023-05-09T15:43:52.921Z,1.75
2023-05-09T15:45:58.153Z,1.83
2023-05-09T15:48:04.233Z,2.20
2023-05-09T15:50:11.107Z,1.80
2023-05-09T15:52:18.733Z,2.53
2023-05-09T15:54:25.646Z,1.77
2023-05-09T15:56:31.031Z,2.10
2023-05-09T15:58:36.101Z,2.13
2023-05-09T16:00:41.169Z,1.77
2023-05-09T16:02:46.499Z,2.03
2023-05-09T16:04:51.709Z,2.10
2023-05-09T16:06:57.289Z,2.22
2023-05-09T16:09:05.267Z,1.80
2023-05-09T16:11:10.359Z,1.80
2023-05-09T16:13:17.247Z,1.98
2023-05-09T16:15:22.427Z,2.10
2023-05-09T16:17:27.446Z,1.90
2023-05-09T16:19:35.039Z,2.17
2023-05-09T16:21:41.009Z,2.20
2023-05-09T16:23:46.036Z,2.25
2023-05-09T16:25:53.697Z,1.85
2023-05-09T16:27:58.727Z,2.05
2023-05-09T16:30:03.749Z,2.20
2023-05-09T16:32:09.859Z,2.00
2023-05-09T16:34:14.906Z,2.10
2023-05-09T16:36:20.093Z,1.75
2023-05-09T16:38:25.226Z,1.77
2023-05-09T16:40:31.284Z,2.00
2023-05-09T16:42:41.462Z,1.95
2023-05-09T16:44:47.951Z,1.98
2023-05-09T16:46:53.373Z,2.25
2023-05-09T16:48:58.564Z,2.38
2023-05-09T16:51:03.672Z,2.20
2023-05-09T16:53:08.982Z,2.28
2023-05-09T16:55:14.014Z,3.03
2023-05-09T16:57:19.381Z,2.30
2023-05-09T16:59:27.183Z,2.30
2023-05-09T17:01:32.789Z,2.28
2023-05-09T17:03:37.851Z,2.53
2023-05-09T17:05:43.007Z,2.10
2023-05-09T17:07:48.924Z,2.17
2023-05-09T17:09:54.189Z,2.80
2023-05-09T17:11:59.222Z,2.08
2023-05-09T17:14:06.195Z,2.63
2023-05-09T17:16:13.869Z,2.40
2023-05-09T17:18:29.246Z,2.55
2023-05-09T17:20:39.120Z,2.20
2023-05-09T17:22:44.185Z,2.65
2023-05-09T17:24:49.705Z,2.70
2023-05-09T17:26:56.161Z,3.03
2023-05-09T17:29:01.686Z,2.10
2023-05-09T17:31:07.792Z,2.42
2023-05-09T17:33:15.721Z,2.35
2023-05-09T17:35:22.921Z,2.53
2023-05-09T17:37:28.454Z,2.30
2023-05-09T17:39:33.711Z,2.17
2023-05-09T17:41:39.066Z,2.42
2023-05-09T17:43:44.543Z,2.67
2023-05-09T17:45:50.169Z,2.40
2023-05-09T17:47:55.221Z,2.90
2023-05-09T17:50:03.236Z,2.78
2023-05-09T17:52:08.581Z,2.92
2023-05-09T17:54:14.619Z,3.00
2023-05-09T17:56:20.037Z,2.70
2023-05-09T17:58:25.114Z,2.92
2023-05-09T18:00:31.303Z,2.58
2023-05-09T18:02:36.498Z,2.42
2023-05-09T18:04:41.545Z,2.50
2023-05-09T18:06:49.661Z,2.53
2023-05-09T18:08:54.703Z,2.78
2023-05-09T18:11:00.300Z,3.38
2023-05-09T18:13:05.508Z,2.80
2023-05-09T18:15:12.146Z,3.50
2023-05-09T18:17:17.401Z,2.70
2023-05-09T18:19:22.670Z,2.92
2023-05-09T18:21:29.024Z,2.85
2023-05-09T18:23:36.887Z,3.63
2023-05-09T18:25:42.052Z,2.78
2023-05-09T18:27:47.343Z,2.60
2023-05-09T18:29:52.743Z,3.05
2023-05-09T18:31:58.061Z,2.83
2023-05-09T18:34:03.220Z,4.47
2023-05-09T18:36:11.561Z,3.15
2023-05-09T18:38:16.866Z,4.10
2023-05-09T18:40:24.464Z,2.67
2023-05-09T18:42:30.547Z,2.80
2023-05-09T18:44:36.561Z,3.13
2023-05-09T18:46:42.577Z,3.35
2023-05-09T18:48:48.129Z,5.40
2023-05-09T18:50:54.927Z,3.30
2023-05-09T18:53:03.171Z,3.13
2023-05-09T18:55:09.062Z,3.67
2023-05-09T18:57:17.493Z,3.30
2023-05-09T18:59:23.835Z,2.60
2023-05-09T19:01:29.023Z,3.50
2023-05-09T19:03:34.332Z,3.05
2023-05-09T19:05:39.368Z,3.28
2023-05-09T19:07:44.568Z,3.38
2023-05-09T19:09:49.784Z,2.95
2023-05-09T19:11:56.755Z,3.35
2023-05-09T19:14:05.175Z,3.47
2023-05-09T19:16:11.078Z,2.95
2023-05-09T19:18:16.192Z,3.05
2023-05-09T19:20:21.509Z,3.22
2023-05-09T19:22:26.889Z,3.30
2023-05-09T19:24:33.987Z,3.17
2023-05-09T19:26:39.042Z,4.10
2023-05-09T19:28:44.213Z,3.78
2023-05-09T19:30:52.923Z,3.58
2023-05-09T19:33:00.011Z,3.30
2023-05-09T19:35:05.099Z,3.70
2023-05-09T19:37:10.108Z,3.67
2023-05-09T19:39:15.120Z,3.88
2023-05-09T19:41:21.610Z,3.70
2023-05-09T19:43:26.727Z,4.13
2023-05-09T19:45:31.796Z,3.65
2023-05-09T19:47:39.444Z,3.30
2023-05-09T19:49:44.455Z,4.47
2023-05-09T19:51:51.522Z,3.30
2023-05-09T19:53:56.715Z,3.90
2023-05-09T19:56:02.619Z,3.63
2023-05-09T19:58:07.662Z,4.10
2023-05-09T20:00:14.676Z,3.58
2023-05-09T20:02:20.028Z,3.92
2023-05-09T20:04:28.738Z,3.50
2023-05-09T20:06:33.928Z,3.55
2023-05-09T20:08:38.957Z,3.92
2023-05-09T20:10:44.051Z,3.95
2023-05-09T20:12:49.326Z,4.57
2023-05-09T20:14:54.487Z,4.28
2023-05-09T20:17:00.045Z,4.68
2023-05-09T20:19:07.712Z,3.90
2023-05-09T20:21:15.951Z,4.70
2023-05-09T20:23:21.195Z,4.10
2023-05-09T20:25:26.702Z,3.85
2023-05-09T20:27:31.736Z,3.35
2023-05-09T20:29:36.754Z,4.30
2023-05-09T20:31:41.789Z,3.45
2023-05-09T20:33:46.898Z,4.10
2023-05-09T20:35:52.078Z,3.33
2023-05-09T20:38:00.261Z,3.75
2023-05-09T20:40:08.579Z,3.08
2023-05-09T20:42:14.049Z,4.18
2023-05-09T20:44:20.494Z,4.03
2023-05-09T20:46:25.695Z,3.78
2023-05-09T20:48:31.278Z,3.90
2023-05-09T20:50:36.392Z,4.28
2023-05-09T20:52:41.387Z,3.83
2023-05-09T20:54:49.823Z,4.00
2023-05-09T20:56:55.176Z,4.80
2023-05-09T20:59:03.707Z,5.00
2023-05-09T21:01:08.813Z,6.60
2023-05-09T21:03:13.984Z,6.93
2023-05-09T21:05:19.443Z,6.68
2023-05-09T21:07:24.702Z,6.97
2023-05-09T21:09:29.765Z,6.68
2023-05-09T21:11:37.376Z,7.20
2023-05-09T21:13:42.654Z,6.95
2023-05-09T21:15:47.697Z,7.30
2023-05-09T21:17:52.761Z,8.32
2023-05-09T21:19:59.167Z,8.90
2023-05-09T21:22:04.577Z,9.65
2023-05-09T21:24:10.793Z,9.52
2023-05-09T21:26:16.671Z,10.10
2023-05-09T21:28:24.373Z,10.52
2023-05-09T21:30:29.384Z,11.38
2023-05-09T21:32:34.888Z,10.18
2023-05-09T21:34:39.907Z,10.60
2023-05-09T21:36:45.326Z,12.15
2023-05-09T21:38:50.748Z,13.75
2023-05-09T21:40:55.824Z,14.02
2023-05-09T21:43:01.289Z,13.75
2023-05-09T21:45:11.113Z,14.07
2023-05-09T21:47:16.205Z,13.57
2023-05-09T21:49:22.253Z,13.88
2023-05-09T21:51:27.309Z,14.07
2023-05-09T21:53:32.601Z,14.65
2023-05-09T21:55:37.606Z,14.48
2023-05-09T21:57:42.640Z,13.55
2023-05-09T21:59:48.416Z,13.63
2023-05-09T22:01:56.364Z,13.88
2023-05-09T22:04:02.526Z,14.20
2023-05-09T22:06:08.270Z,13.32
2023-05-09T22:08:13.363Z,11.73
2023-05-09T22:10:18.779Z,10.90
2023-05-09T22:12:23.917Z,9.45
2023-05-09T22:14:29.422Z,9.02
2023-05-09T22:16:34.509Z,8.90
2023-05-09T22:18:42.365Z,8.30
2023-05-09T22:20:47.548Z,8.88
2023-05-09T22:22:52.558Z,8.70
2023-05-09T22:24:57.959Z,8.63
2023-05-09T22:27:03.425Z,8.60
2023-05-09T22:29:08.792Z,8.48
2023-05-09T22:31:13.818Z,8.82
2023-05-09T22:33:18.862Z,8.93
2023-05-09T22:35:26.919Z,9.15
2023-05-09T22:37:31.939Z,10.02
2023-05-09T22:39:36.973Z,10.55
2023-05-09T22:41:42.810Z,10.27
2023-05-09T22:43:48.767Z,9.80
2023-05-09T22:45:54.230Z,10.73
2023-05-09T22:47:59.788Z,9.43
2023-05-09T22:50:04.895Z,8.30
2023-05-09T22:52:12.950Z,9.25
2023-05-09T22:54:21.815Z,8.75
2023-05-09T22:56:27.806Z,10.10
2023-05-09T22:58:32.803Z,8.50
2023-05-09T23:00:38.874Z,8.88
2023-05-09T23:02:44.091Z,8.23
2023-05-09T23:04:49.163Z,8.35
2023-05-09T23:06:54.776Z,7.78
2023-05-09T23:09:02.356Z,7.80
2023-05-09T23:11:08.227Z,6.72
2023-05-09T23:13:14.029Z,6.72
2023-05-09T23:15:19.300Z,6.30
2023-05-09T23:17:24.821Z,5.95
2023-05-09T23:19:29.872Z,5.47
2023-05-09T23:21:34.916Z,6.05
2023-05-09T23:23:40.031Z,5.43
2023-05-09T23:25:47.770Z,4.97
2023-05-09T23:27:54.663Z,6.53
2023-05-09T23:29:59.745Z,5.57
2023-05-09T23:32:06.475Z,5.72
2023-05-09T23:34:11.492Z,6.57
2023-05-09T23:36:16.808Z,5.97
2023-05-09T23:38:22.679Z,6.78
2023-05-09T23:40:28.058Z,7.38
2023-05-09T23:42:35.716Z,8.05
2023-05-09T23:44:41.296Z,6.90
2023-05-09T23:46:46.324Z,8.10
2023-05-09T23:48:51.324Z,7.13
2023-05-09T23:50:56.392Z,6.82
2023-05-09T23:53:01.654Z,7.05
2023-05-09T23:55:07.890Z,8.82
2023-05-09T23:57:12.897Z,6.97
2023-05-09T23:59:20.560Z,8.02
